createdAt,value
2022-08-26T00:00:48.066Z,8.50
2022-08-26T00:01:48.091Z,8.00
2022-08-26T00:02:48.038Z,7.70
2022-08-26T00:03:48.077Z,7.80
2022-08-26T00:04:48.031Z,8.00
2022-08-26T00:05:48.025Z,8.10
2022-08-26T00:06:49.024Z,7.90
2022-08-26T00:07:48.009Z,8.00
2022-08-26T00:08:47.959Z,8.90
2022-08-26T00:09:47.940Z,8.70
2022-08-26T00:10:48.152Z,8.50
2022-08-26T00:11:47.939Z,8.20
2022-08-26T00:12:48.769Z,8.40
2022-08-26T00:13:49.589Z,7.50
2022-08-26T00:14:48.221Z,8.10
2022-08-26T00:15:47.931Z,8.70
2022-08-26T00:16:49.012Z,8.10
2022-08-26T00:17:48.052Z,8.40
2022-08-26T00:18:48.474Z,8.20
2022-08-26T00:19:47.824Z,8.10
2022-08-26T00:20:47.855Z,8.30
2022-08-26T00:21:48.555Z,8.60
2022-08-26T00:22:47.783Z,8.80
2022-08-26T00:23:47.795Z,8.60
2022-08-26T00:24:48.530Z,8.40
2022-08-26T00:25:47.786Z,8.30
2022-08-26T00:26:47.727Z,8.60
2022-08-26T00:27:47.816Z,8.30
2022-08-26T00:28:48.126Z,8.50
2022-08-26T00:29:47.714Z,8.30
2022-08-26T00:30:47.950Z,7.90
2022-08-26T00:31:47.734Z,7.90
2022-08-26T00:32:47.923Z,7.70
2022-08-26T00:33:48.256Z,8.10
2022-08-26T00:34:48.076Z,8.20
2022-08-26T00:35:47.896Z,8.20
2022-08-26T00:36:50.878Z,8.30
2022-08-26T00:37:48.026Z,8.40
2022-08-26T00:38:47.696Z,8.40
2022-08-26T00:39:47.775Z,8.60
2022-08-26T00:40:47.600Z,8.20
2022-08-26T00:41:47.827Z,8.60
2022-08-26T00:42:47.840Z,8.30
2022-08-26T00:43:48.100Z,8.70
2022-08-26T00:44:48.277Z,8.60
2022-08-26T00:45:47.964Z,8.50
2022-08-26T00:46:48.375Z,8.60
2022-08-26T00:47:47.588Z,9.00
2022-08-26T00:48:48.000Z,8.40
2022-08-26T00:49:48.545Z,8.70
2022-08-26T00:50:47.674Z,8.50
2022-08-26T00:51:47.544Z,8.90
2022-08-26T00:52:48.273Z,8.80
2022-08-26T00:53:47.439Z,9.00
2022-08-26T00:54:47.668Z,8.90
2022-08-26T00:55:47.594Z,8.60
2022-08-26T00:56:47.570Z,8.70
2022-08-26T00:57:47.375Z,9.10
2022-08-26T00:58:47.443Z,9.10
2022-08-26T00:59:47.683Z,9.00
2022-08-26T01:00:47.507Z,9.10
2022-08-26T01:01:47.655Z,9.10
2022-08-26T01:02:47.569Z,9.40
2022-08-26T01:03:47.713Z,9.20
2022-08-26T01:04:47.647Z,9.00
2022-08-26T01:05:47.494Z,9.10
2022-08-26T01:06:47.628Z,9.70
2022-08-26T01:07:47.319Z,9.20
2022-08-26T01:08:47.522Z,8.70
2022-08-26T01:09:47.272Z,9.10
2022-08-26T01:10:47.730Z,8.80
2022-08-26T01:11:47.533Z,8.90
2022-08-26T01:12:47.529Z,9.30
2022-08-26T01:13:47.198Z,9.00
2022-08-26T01:14:47.337Z,9.60
2022-08-26T01:15:47.202Z,10.10
2022-08-26T01:16:47.331Z,9.20
2022-08-26T01:17:47.562Z,9.60
2022-08-26T01:18:47.560Z,9.90
2022-08-26T01:19:47.335Z,8.80
2022-08-26T01:20:47.427Z,9.80
2022-08-26T01:21:47.225Z,9.90
2022-08-26T01:22:47.194Z,9.70
2022-08-26T01:23:47.298Z,9.60
2022-08-26T01:24:47.255Z,9.60
2022-08-26T01:25:47.194Z,9.30
2022-08-26T01:26:47.361Z,10.00
2022-08-26T01:27:47.247Z,10.20
2022-08-26T01:28:50.623Z,9.90
2022-08-26T01:29:47.104Z,10.30
2022-08-26T01:30:47.267Z,11.10
2022-08-26T01:31:47.410Z,10.50
2022-08-26T01:32:47.098Z,10.40
2022-08-26T01:33:47.166Z,10.80
2022-08-26T01:34:47.254Z,10.60
2022-08-26T01:35:47.107Z,10.70
2022-08-26T01:36:51.171Z,10.70
2022-08-26T01:37:47.234Z,10.40
2022-08-26T01:38:47.118Z,11.00
2022-08-26T01:39:47.135Z,10.90
2022-08-26T01:40:47.065Z,10.80
2022-08-26T01:41:47.262Z,10.10
2022-08-26T01:42:48.466Z,10.90
2022-08-26T01:43:46.905Z,10.60
2022-08-26T01:44:47.124Z,10.50
2022-08-26T01:45:47.065Z,10.80
2022-08-26T01:46:47.904Z,9.90
2022-08-26T01:47:47.155Z,10.80
2022-08-26T01:48:47.208Z,10.30
2022-08-26T01:49:47.284Z,10.90
2022-08-26T01:50:46.952Z,10.60
2022-08-26T01:51:47.073Z,11.30
2022-08-26T01:52:49.883Z,10.90
2022-08-26T01:53:46.988Z,11.20
2022-08-26T01:54:50.542Z,11.00
2022-08-26T01:55:47.000Z,10.90
2022-08-26T01:56:46.964Z,10.20
2022-08-26T01:57:46.795Z,11.40
2022-08-26T01:58:46.786Z,10.90
2022-08-26T01:59:46.895Z,10.50
2022-08-26T02:00:47.520Z,10.80
2022-08-26T02:01:46.783Z,11.70
2022-08-26T02:02:46.778Z,11.20
2022-08-26T02:03:46.701Z,10.40
2022-08-26T02:04:46.704Z,10.50
2022-08-26T02:05:46.744Z,10.80
2022-08-26T02:06:46.817Z,11.30
2022-08-26T02:07:46.772Z,12.00
2022-08-26T02:08:46.630Z,11.20
2022-08-26T02:09:46.706Z,11.40
2022-08-26T02:10:46.659Z,11.50
2022-08-26T02:11:46.606Z,10.80
2022-08-26T02:12:46.752Z,11.30
2022-08-26T02:13:46.638Z,10.40
2022-08-26T02:14:46.506Z,11.00
2022-08-26T02:15:46.513Z,11.20
2022-08-26T02:16:46.591Z,11.30
2022-08-26T02:17:46.548Z,11.40
2022-08-26T02:18:47.021Z,11.70
2022-08-26T02:19:46.640Z,11.20
2022-08-26T02:20:46.549Z,10.70
2022-08-26T02:21:46.484Z,10.70
2022-08-26T02:22:46.450Z,11.10
2022-08-26T02:23:46.527Z,11.00
2022-08-26T02:24:47.083Z,11.60
2022-08-26T02:25:46.559Z,11.30
2022-08-26T02:26:46.578Z,11.70
2022-08-26T02:27:46.492Z,11.40
2022-08-26T02:28:46.488Z,11.60
2022-08-26T02:29:46.460Z,12.20
2022-08-26T02:30:46.630Z,12.20
2022-08-26T02:31:46.550Z,12.00
2022-08-26T02:32:49.563Z,12.30
2022-08-26T02:33:46.332Z,12.70
2022-08-26T02:34:46.332Z,11.70
2022-08-26T02:35:46.258Z,12.40
2022-08-26T02:36:46.379Z,12.40
2022-08-26T02:37:46.282Z,11.70
2022-08-26T02:38:46.544Z,12.00
2022-08-26T02:39:46.264Z,11.70
2022-08-26T02:40:46.194Z,11.80
2022-08-26T02:41:46.433Z,12.80
2022-08-26T02:42:46.269Z,12.60
2022-08-26T02:43:46.480Z,12.40
2022-08-26T02:44:46.368Z,11.30
2022-08-26T02:45:46.163Z,12.40
2022-08-26T02:46:47.244Z,11.60
2022-08-26T02:47:46.142Z,12.60
2022-08-26T02:48:46.218Z,12.10
2022-08-26T02:49:47.201Z,11.80
2022-08-26T02:50:46.109Z,13.00
2022-08-26T02:51:46.216Z,12.70
2022-08-26T02:52:46.150Z,12.30
2022-08-26T02:53:46.120Z,12.40
2022-08-26T02:54:46.186Z,11.90
2022-08-26T02:55:46.076Z,12.30
2022-08-26T02:56:46.035Z,12.70
2022-08-26T02:57:46.051Z,11.90
2022-08-26T02:58:47.076Z,12.70
2022-08-26T02:59:46.078Z,12.70
2022-08-26T03:00:52.603Z,12.50
2022-08-26T03:01:46.162Z,11.90
2022-08-26T03:02:45.965Z,11.60
2022-08-26T03:03:45.985Z,12.80
2022-08-26T03:04:57.820Z,11.90
2022-08-26T03:05:46.203Z,12.40
2022-08-26T03:06:47.035Z,13.10
2022-08-26T03:07:46.272Z,12.70
2022-08-26T03:08:45.921Z,13.20
2022-08-26T03:09:45.892Z,13.40
2022-08-26T03:10:45.967Z,12.80
2022-08-26T03:11:45.958Z,13.40
2022-08-26T03:12:47.433Z,12.80
2022-08-26T03:13:45.859Z,13.20
2022-08-26T03:14:45.989Z,13.10
2022-08-26T03:15:46.028Z,13.10
2022-08-26T03:16:48.434Z,14.30
2022-08-26T03:17:45.900Z,14.80
2022-08-26T03:18:51.978Z,14.80
2022-08-26T03:19:45.789Z,13.90
2022-08-26T03:20:45.968Z,14.00
2022-08-26T03:21:47.400Z,14.60
2022-08-26T03:22:45.897Z,14.60
2022-08-26T03:23:46.091Z,14.90
2022-08-26T03:24:46.619Z,14.40
2022-08-26T03:25:45.759Z,15.50
2022-08-26T03:26:52.920Z,15.50
2022-08-26T03:27:46.006Z,16.00
2022-08-26T03:28:46.626Z,15.30
2022-08-26T03:29:45.793Z,15.60
2022-08-26T03:30:45.936Z,14.80
2022-08-26T03:31:46.875Z,14.70
2022-08-26T03:32:45.803Z,13.80
2022-08-26T03:33:45.756Z,13.80
2022-08-26T03:34:45.737Z,12.70
2022-08-26T03:35:45.638Z,11.30
2022-08-26T03:36:46.035Z,12.00
2022-08-26T03:37:45.833Z,12.80
2022-08-26T03:38:45.592Z,12.90
2022-08-26T03:39:45.526Z,12.50
2022-08-26T03:40:45.986Z,12.80
2022-08-26T03:41:46.651Z,12.70
2022-08-26T03:42:45.749Z,14.00
2022-08-26T03:43:45.571Z,12.40
2022-08-26T03:44:45.636Z,12.50
2022-08-26T03:45:46.087Z,13.00
2022-08-26T03:46:45.667Z,11.30
2022-08-26T03:47:45.532Z,12.90
2022-08-26T03:48:45.807Z,11.80
2022-08-26T03:49:45.649Z,12.60
2022-08-26T03:50:45.436Z,13.20
2022-08-26T03:51:45.479Z,12.00
2022-08-26T03:52:45.627Z,14.50
2022-08-26T03:53:45.477Z,14.60
2022-08-26T03:54:45.538Z,12.60
2022-08-26T03:55:45.797Z,12.30
2022-08-26T03:56:46.560Z,12.10
2022-08-26T03:57:45.495Z,12.20
2022-08-26T03:58:45.869Z,13.00
2022-08-26T03:59:45.373Z,11.40
2022-08-26T04:00:46.134Z,10.70
2022-08-26T04:01:45.516Z,11.00
2022-08-26T04:02:45.404Z,11.30
2022-08-26T04:03:45.291Z,10.90
2022-08-26T04:04:45.257Z,10.60
2022-08-26T04:05:45.257Z,11.60
2022-08-26T04:06:45.356Z,12.90
2022-08-26T04:07:45.343Z,13.30
2022-08-26T04:08:45.394Z,11.40
2022-08-26T04:09:45.235Z,11.90
2022-08-26T04:10:45.429Z,12.10
2022-08-26T04:11:45.399Z,11.20
2022-08-26T04:12:45.601Z,10.60
2022-08-26T04:13:45.427Z,10.70
2022-08-26T04:14:45.155Z,10.60
2022-08-26T04:15:45.337Z,10.80
2022-08-26T04:16:45.218Z,10.60
2022-08-26T04:17:45.304Z,10.80
2022-08-26T04:18:46.664Z,10.60
2022-08-26T04:19:45.089Z,10.30
2022-08-26T04:20:45.099Z,10.70
2022-08-26T04:21:45.075Z,12.10
2022-08-26T04:22:45.060Z,12.40
2022-08-26T04:23:47.066Z,12.90
2022-08-26T04:24:45.105Z,10.50
2022-08-26T04:25:45.019Z,10.20
2022-08-26T04:26:44.987Z,11.80
2022-08-26T04:27:44.977Z,10.10
2022-08-26T04:28:45.032Z,8.90
2022-08-26T04:29:44.967Z,12.10
2022-08-26T04:30:45.115Z,11.00
2022-08-26T04:31:45.066Z,11.00
2022-08-26T04:32:44.946Z,11.00
2022-08-26T04:33:44.983Z,11.90
2022-08-26T04:34:45.065Z,14.10
2022-08-26T04:35:44.896Z,13.30
2022-08-26T04:36:45.072Z,11.40
2022-08-26T04:37:45.147Z,10.90
2022-08-26T04:38:44.891Z,10.80
2022-08-26T04:39:44.854Z,10.10
2022-08-26T04:40:46.745Z,10.50
2022-08-26T04:41:44.873Z,10.70
2022-08-26T04:42:44.871Z,10.40
2022-08-26T04:43:44.821Z,10.90
2022-08-26T04:44:45.856Z,10.20
2022-08-26T04:45:44.781Z,10.50
2022-08-26T04:46:44.838Z,10.50
2022-08-26T04:47:44.766Z,10.40
2022-08-26T04:48:48.473Z,10.30
2022-08-26T04:49:44.930Z,10.60
2022-08-26T04:50:44.934Z,10.80
2022-08-26T04:58:35.913Z,12.00
2022-08-26T05:32:46.967Z,14.80
2022-08-26T05:33:47.951Z,14.80
2022-08-26T05:34:47.877Z,13.90
2022-08-26T05:35:47.933Z,20.30
2022-08-26T05:36:47.853Z,22.10
2022-08-26T05:37:48.096Z,19.90
2022-08-26T05:38:47.833Z,21.00
2022-08-26T05:39:51.019Z,23.50
2022-08-26T05:40:47.868Z,23.30
2022-08-26T05:41:47.811Z,23.50
2022-08-26T05:42:47.812Z,23.30
2022-08-26T05:43:47.823Z,24.70
2022-08-26T05:44:55.703Z,23.30
2022-08-26T05:45:47.754Z,24.50
2022-08-26T05:46:47.800Z,24.30
2022-08-26T05:47:47.727Z,24.20
2022-08-26T05:48:47.832Z,24.90
2022-08-26T05:49:49.471Z,25.10
2022-08-26T05:50:47.708Z,24.90
2022-08-26T05:51:48.101Z,23.30
2022-08-26T05:52:47.654Z,23.60
2022-08-26T05:53:54.770Z,24.40
2022-08-26T05:54:47.832Z,25.10
2022-08-26T05:55:47.702Z,24.90
2022-08-26T05:56:47.628Z,24.00
2022-08-26T05:57:47.815Z,24.90
2022-08-26T05:58:47.795Z,23.70
2022-08-26T05:59:47.581Z,21.60
2022-08-26T06:00:48.536Z,20.80
2022-08-26T06:01:47.689Z,21.10
2022-08-26T06:02:48.427Z,21.20
2022-08-26T06:03:47.592Z,20.20
2022-08-26T06:04:47.549Z,21.00
2022-08-26T06:05:47.538Z,20.40
2022-08-26T06:06:47.509Z,20.00
2022-08-26T06:07:47.552Z,20.60
2022-08-26T06:08:47.498Z,20.20
2022-08-26T06:09:47.501Z,19.60
2022-08-26T06:10:47.459Z,19.50
2022-08-26T06:11:47.444Z,19.30
2022-08-26T06:12:47.445Z,19.50
2022-08-26T06:13:47.487Z,20.20
2022-08-26T06:14:49.025Z,19.60
2022-08-26T06:15:47.615Z,19.70
2022-08-26T06:16:47.481Z,20.00
2022-08-26T06:17:47.498Z,19.10
2022-08-26T06:18:47.689Z,19.00
2022-08-26T06:21:04.038Z,19.00
2022-08-26T06:22:04.484Z,18.90
2022-08-26T06:23:04.597Z,19.40
2022-08-26T06:24:04.505Z,18.40
2022-08-26T06:25:04.412Z,20.00
2022-08-26T06:26:04.430Z,19.30
2022-08-26T06:27:04.466Z,19.40
2022-08-26T06:28:04.416Z,20.40
2022-08-26T06:29:04.341Z,19.20
2022-08-26T06:30:04.346Z,19.40
2022-08-26T06:31:04.550Z,19.40
2022-08-26T06:32:04.348Z,19.50
2022-08-26T06:33:04.431Z,19.50
2022-08-26T06:34:07.367Z,19.50
2022-08-26T06:35:04.309Z,18.90
2022-08-26T06:36:05.014Z,20.00
2022-08-26T06:37:04.333Z,19.10
2022-08-26T06:38:04.721Z,19.00
2022-08-26T06:39:04.234Z,19.80
2022-08-26T06:40:04.718Z,19.70
2022-08-26T06:41:04.375Z,19.80
2022-08-26T06:42:06.256Z,20.00
2022-08-26T06:43:04.383Z,19.60
2022-08-26T06:44:04.352Z,20.30
2022-08-26T06:45:04.450Z,20.80
2022-08-26T06:46:04.989Z,20.70
2022-08-26T06:47:04.398Z,21.10
2022-08-26T06:48:04.973Z,20.40
2022-08-26T06:49:04.209Z,20.10
2022-08-26T06:50:04.360Z,20.90
2022-08-26T06:51:04.212Z,19.80
2022-08-26T06:52:04.229Z,19.50
2022-08-26T06:53:04.337Z,18.60
2022-08-26T06:54:04.084Z,18.30
2022-08-26T06:55:04.118Z,19.60
2022-08-26T06:56:04.388Z,19.60
2022-08-26T06:57:04.107Z,18.90
2022-08-26T06:58:05.178Z,19.10
2022-08-26T06:59:04.295Z,19.50
2022-08-26T07:00:04.081Z,19.10
2022-08-26T07:01:11.201Z,18.60
2022-08-26T07:02:04.844Z,18.70
2022-08-26T07:03:07.555Z,18.30
2022-08-26T07:04:04.375Z,18.30
2022-08-26T07:05:04.159Z,17.90
2022-08-26T07:06:04.289Z,16.90
2022-08-26T07:07:04.139Z,17.00
2022-08-26T07:08:04.089Z,16.70
2022-08-26T07:09:04.245Z,18.00
2022-08-26T07:10:04.180Z,17.30
2022-08-26T07:11:04.162Z,17.20
2022-08-26T07:12:03.946Z,17.60
2022-08-26T07:13:04.084Z,17.00
2022-08-26T07:14:04.369Z,18.30
2022-08-26T07:15:03.969Z,17.60
2022-08-26T07:16:04.509Z,18.60
2022-08-26T07:17:03.996Z,19.40
2022-08-26T07:18:03.868Z,18.30
2022-08-26T07:19:10.988Z,19.30
2022-08-26T07:20:03.829Z,22.50
2022-08-26T07:21:03.806Z,20.50
2022-08-26T07:22:04.242Z,21.10
2022-08-26T07:23:03.762Z,21.60
2022-08-26T07:24:03.765Z,22.60
2022-08-26T07:25:03.818Z,23.60
2022-08-26T07:26:03.814Z,25.40
2022-08-26T07:27:03.705Z,26.10
2022-08-26T07:28:03.713Z,27.30
2022-08-26T07:29:03.686Z,27.30
2022-08-26T07:30:03.686Z,26.90
2022-08-26T07:31:03.772Z,27.00
2022-08-26T07:32:03.752Z,26.80
2022-08-26T07:33:03.667Z,26.50
2022-08-26T07:34:03.633Z,26.10
2022-08-26T07:35:03.637Z,24.80
2022-08-26T07:36:04.164Z,25.00
2022-08-26T07:37:03.641Z,25.30
2022-08-26T07:38:03.673Z,24.10
2022-08-26T07:39:03.641Z,25.20
2022-08-26T07:40:03.620Z,26.00
2022-08-26T07:41:03.625Z,25.90
2022-08-26T07:42:07.393Z,25.90
2022-08-26T07:43:03.566Z,26.60
2022-08-26T07:44:04.335Z,26.20
2022-08-26T07:45:03.820Z,23.70
2022-08-26T07:46:03.535Z,23.80
2022-08-26T07:47:03.520Z,25.50
2022-08-26T07:48:04.060Z,23.80
2022-08-26T07:49:03.557Z,24.80
2022-08-26T07:50:03.512Z,25.20
2022-08-26T07:51:03.658Z,24.70
2022-08-26T07:52:03.462Z,24.30
2022-08-26T07:53:04.563Z,24.90
2022-08-26T07:54:03.439Z,24.10
2022-08-26T07:55:03.416Z,23.10
2022-08-26T07:56:03.582Z,23.20
2022-08-26T07:57:05.136Z,22.20
2022-08-26T07:58:03.463Z,21.30
2022-08-26T07:59:04.331Z,21.70
2022-08-26T08:00:03.359Z,22.40
2022-08-26T08:01:03.406Z,21.50
2022-08-26T08:02:03.493Z,22.00
2022-08-26T08:03:03.527Z,22.20
2022-08-26T08:04:03.507Z,21.80
2022-08-26T08:05:03.424Z,21.30
2022-08-26T08:06:03.316Z,21.10
2022-08-26T08:07:03.316Z,22.00
2022-08-26T08:08:19.735Z,22.20
2022-08-26T08:09:03.321Z,22.20
2022-08-26T08:10:06.701Z,21.00
2022-08-26T08:11:03.331Z,21.10
2022-08-26T08:12:03.247Z,21.20
2022-08-26T08:13:03.203Z,21.10
2022-08-26T08:14:03.364Z,21.20
2022-08-26T08:15:03.244Z,21.20
2022-08-26T08:16:03.208Z,20.70
2022-08-26T08:17:04.038Z,20.50
2022-08-26T08:18:03.166Z,18.70
2022-08-26T08:19:03.807Z,18.10
2022-08-26T08:20:03.220Z,17.60
2022-08-26T08:21:20.931Z,18.90
2022-08-26T08:22:03.111Z,19.40
2022-08-26T08:23:03.140Z,19.30
2022-08-26T08:24:05.021Z,19.10
2022-08-26T08:25:03.094Z,20.30
2022-08-26T08:26:03.177Z,19.30
2022-08-26T08:27:03.063Z,19.70
2022-08-26T08:28:03.353Z,18.80
2022-08-26T08:29:03.045Z,18.70
2022-08-26T08:30:03.093Z,18.10
2022-08-26T08:31:03.385Z,17.20
2022-08-26T08:32:04.125Z,17.50
2022-08-26T08:33:03.491Z,17.80
2022-08-26T08:34:03.065Z,17.10
2022-08-26T08:35:03.035Z,17.50
2022-08-26T08:36:02.997Z,17.00
2022-08-26T08:37:04.376Z,16.60
2022-08-26T08:38:04.293Z,17.60
2022-08-26T08:39:03.042Z,18.40
2022-08-26T08:40:02.982Z,18.10
2022-08-26T08:41:05.535Z,17.60
2022-08-26T08:42:02.886Z,18.20
2022-08-26T08:43:02.886Z,17.70
2022-08-26T08:44:02.937Z,17.90
2022-08-26T08:45:02.925Z,17.50
2022-08-26T08:46:02.973Z,15.90
2022-08-26T08:47:03.129Z,15.70
2022-08-26T08:48:02.877Z,16.70
2022-08-26T08:49:02.946Z,17.40
2022-08-26T08:50:02.888Z,17.20
2022-08-26T08:51:03.475Z,16.70
2022-08-26T08:52:02.925Z,16.10
2022-08-26T08:53:02.825Z,15.50
2022-08-26T08:54:03.065Z,15.40
2022-08-26T08:55:02.826Z,16.00
2022-08-26T08:56:02.786Z,15.20
2022-08-26T08:57:02.762Z,15.20
2022-08-26T08:58:02.791Z,14.30
2022-08-26T08:59:02.755Z,15.80
2022-08-26T09:00:02.693Z,15.40
2022-08-26T09:01:02.732Z,15.80
2022-08-26T09:02:03.069Z,15.70
2022-08-26T09:03:02.691Z,15.00
2022-08-26T09:04:02.627Z,14.60
2022-08-26T09:05:02.674Z,16.30
2022-08-26T09:06:03.476Z,15.10
2022-08-26T09:07:02.764Z,15.30
2022-08-26T09:08:02.860Z,16.60
2022-08-26T09:09:02.653Z,16.50
2022-08-26T09:10:02.658Z,16.50
2022-08-26T09:11:02.605Z,15.70
2022-08-26T09:12:02.793Z,15.90
2022-08-26T09:13:02.676Z,16.80
2022-08-26T09:14:02.587Z,17.20
2022-08-26T09:15:03.630Z,16.30
2022-08-26T09:16:02.527Z,17.40
2022-08-26T09:17:02.621Z,17.60
2022-08-26T09:18:02.541Z,17.70
2022-08-26T09:19:02.496Z,18.00
2022-08-26T09:20:02.809Z,17.40
2022-08-26T09:21:03.309Z,17.80
2022-08-26T09:22:06.979Z,16.60
2022-08-26T09:23:02.492Z,16.10
2022-08-26T09:24:02.438Z,16.70
2022-08-26T09:25:02.404Z,16.70
2022-08-26T09:26:02.542Z,15.70
2022-08-26T09:27:02.406Z,17.00
2022-08-26T09:28:02.626Z,16.40
2022-08-26T09:29:02.383Z,16.10
2022-08-26T09:30:02.372Z,16.00
2022-08-26T09:31:03.517Z,16.10
2022-08-26T09:32:02.391Z,15.80
2022-08-26T09:33:02.335Z,16.90
2022-08-26T09:34:02.364Z,16.60
2022-08-26T09:35:02.389Z,17.20
2022-08-26T09:36:02.405Z,16.90
2022-08-26T09:37:04.527Z,17.40
2022-08-26T09:38:02.388Z,16.90
2022-08-26T09:39:02.288Z,17.80
2022-08-26T09:40:02.521Z,16.40
2022-08-26T09:41:02.303Z,17.20
2022-08-26T09:42:02.349Z,17.20
2022-08-26T09:43:02.230Z,16.80
2022-08-26T09:44:02.300Z,17.60
2022-08-26T09:45:02.324Z,16.70
2022-08-26T09:46:02.318Z,16.10
2022-08-26T09:47:02.215Z,15.90
2022-08-26T09:48:02.315Z,16.30
2022-08-26T09:49:02.204Z,15.10
2022-08-26T09:50:03.323Z,15.60
2022-08-26T09:51:02.199Z,15.20
2022-08-26T09:52:02.436Z,15.00
2022-08-26T09:53:02.213Z,16.00
2022-08-26T09:54:02.312Z,15.90
2022-08-26T09:55:02.164Z,15.20
2022-08-26T09:56:02.224Z,14.80
2022-08-26T09:57:02.135Z,15.00
2022-08-26T09:58:04.124Z,13.40
2022-08-26T09:59:02.337Z,13.10
2022-08-26T10:00:02.839Z,13.90
2022-08-26T10:01:03.053Z,14.40
2022-08-26T10:03:02.182Z,14.00
2022-08-26T10:04:02.056Z,13.70
2022-08-26T10:05:08.983Z,12.80
2022-08-26T10:06:02.002Z,11.80
2022-08-26T10:07:02.027Z,12.90
2022-08-26T10:08:02.025Z,13.00
2022-08-26T10:09:03.594Z,12.80
2022-08-26T10:10:02.012Z,12.60
2022-08-26T10:11:01.963Z,12.30
2022-08-26T10:12:01.953Z,13.30
2022-08-26T10:13:02.080Z,12.50
2022-08-26T10:14:01.967Z,12.20
2022-08-26T10:15:01.974Z,12.10
2022-08-26T10:16:01.874Z,12.10
2022-08-26T10:17:01.993Z,11.20
2022-08-26T10:18:01.983Z,12.70
2022-08-26T10:19:02.161Z,11.80
2022-08-26T10:20:02.263Z,12.60
2022-08-26T10:21:01.884Z,11.40
2022-08-26T10:22:02.132Z,11.80
2022-08-26T10:23:02.028Z,11.90
2022-08-26T10:24:01.985Z,11.80
2022-08-26T10:25:02.748Z,12.00
2022-08-26T10:26:02.079Z,12.20
2022-08-26T10:27:02.146Z,11.20
2022-08-26T10:28:01.895Z,11.30
2022-08-26T10:29:01.964Z,11.50
2022-08-26T10:30:01.957Z,12.10
2022-08-26T10:31:02.649Z,12.10
2022-08-26T10:32:03.592Z,12.10
2022-08-26T10:33:02.030Z,12.00
2022-08-26T10:34:01.791Z,12.10
2022-08-26T10:35:01.993Z,12.60
2022-08-26T10:36:01.964Z,14.20
2022-08-26T10:37:14.473Z,14.00
2022-08-26T10:38:01.987Z,13.70
2022-08-26T10:39:02.020Z,13.60
2022-08-26T10:40:01.710Z,13.40
2022-08-26T10:41:01.591Z,13.80
2022-08-26T10:42:01.643Z,14.40
2022-08-26T10:43:01.709Z,15.10
2022-08-26T10:44:01.825Z,14.30
2022-08-26T10:45:01.542Z,14.00
2022-08-26T10:46:01.623Z,14.60
2022-08-26T10:47:01.576Z,14.20
2022-08-26T10:48:01.590Z,13.80
2022-08-26T10:49:03.215Z,13.30
2022-08-26T10:50:03.430Z,13.00
2022-08-26T10:51:01.493Z,13.20
2022-08-26T10:52:01.585Z,12.90
2022-08-26T10:53:01.650Z,12.90
2022-08-26T10:54:01.688Z,13.50
2022-08-26T10:55:01.620Z,12.40
2022-08-26T10:56:01.537Z,12.30
2022-08-26T10:57:01.505Z,11.60
2022-08-26T10:58:05.031Z,12.40
2022-08-26T10:59:01.456Z,11.90
2022-08-26T11:00:01.703Z,11.50
2022-08-26T11:01:02.524Z,11.30
2022-08-26T11:02:03.859Z,11.50
2022-08-26T11:03:01.342Z,12.50
2022-08-26T11:04:01.398Z,12.00
2022-08-26T11:05:01.335Z,12.80
2022-08-26T11:06:01.333Z,13.10
2022-08-26T11:07:01.350Z,12.80
2022-08-26T11:08:01.407Z,12.50
2022-08-26T11:09:01.279Z,12.20
2022-08-26T11:10:01.301Z,12.40
2022-08-26T11:11:01.281Z,12.30
2022-08-26T11:12:09.991Z,11.40
2022-08-26T11:13:01.761Z,12.10
2022-08-26T11:14:01.311Z,11.80
2022-08-26T11:15:01.280Z,11.50
2022-08-26T11:16:01.409Z,10.90
2022-08-26T11:17:01.328Z,10.30
2022-08-26T11:18:01.158Z,9.20
2022-08-26T11:19:01.144Z,10.10
2022-08-26T11:20:03.887Z,9.30
2022-08-26T11:21:01.135Z,9.60
2022-08-26T11:22:01.157Z,9.10
2022-08-26T11:23:01.130Z,9.00
2022-08-26T11:24:01.135Z,9.00
2022-08-26T11:25:01.098Z,9.00
2022-08-26T11:26:01.158Z,9.50
2022-08-26T11:27:01.073Z,9.10
2022-08-26T11:28:01.135Z,9.20
2022-08-26T11:29:01.038Z,9.10
2022-08-26T11:30:01.066Z,8.80
2022-08-26T11:31:01.031Z,8.70
2022-08-26T11:32:01.111Z,8.40
2022-08-26T11:33:01.042Z,8.00
2022-08-26T11:34:01.057Z,8.30
2022-08-26T11:35:01.039Z,8.50
2022-08-26T11:36:00.985Z,7.80
2022-08-26T11:37:00.962Z,7.50
2022-08-26T11:38:01.015Z,8.70
2022-08-26T11:39:00.988Z,7.90
2022-08-26T11:40:01.010Z,8.60
2022-08-26T11:41:00.912Z,8.90
2022-08-26T11:42:00.914Z,8.00
2022-08-26T11:43:00.906Z,7.10
2022-08-26T11:44:01.299Z,8.40
2022-08-26T11:45:05.402Z,8.40
2022-08-26T11:46:00.954Z,7.80
2022-08-26T11:47:00.881Z,7.90
2022-08-26T11:48:00.898Z,7.70
2022-08-26T11:49:00.839Z,8.30
2022-08-26T11:50:00.843Z,8.80
2022-08-26T11:51:00.822Z,8.30
2022-08-26T11:52:00.849Z,9.00
2022-08-26T11:53:00.805Z,8.60
2022-08-26T11:54:00.776Z,7.70
2022-08-26T11:55:00.775Z,8.50
2022-08-26T11:56:01.304Z,8.60
2022-08-26T11:57:02.895Z,8.00
2022-08-26T11:58:00.752Z,9.10
2022-08-26T11:59:02.515Z,8.60
2022-08-26T12:00:00.714Z,8.60
2022-08-26T12:01:00.705Z,8.10
2022-08-26T12:02:00.760Z,8.30
2022-08-26T12:03:00.723Z,9.10
2022-08-26T12:04:01.503Z,8.70
2022-08-26T12:05:00.662Z,8.70
2022-08-26T12:06:00.655Z,8.60
2022-08-26T12:07:00.665Z,9.70
2022-08-26T12:08:00.689Z,9.60
2022-08-26T12:09:01.625Z,8.90
2022-08-26T12:10:00.648Z,8.30
2022-08-26T12:11:00.622Z,7.90
2022-08-26T12:12:00.606Z,8.70
2022-08-26T12:13:00.657Z,8.70
2022-08-26T12:14:00.617Z,9.10
2022-08-26T12:15:00.633Z,9.20
2022-08-26T12:16:00.675Z,8.40
2022-08-26T12:17:00.582Z,8.70
2022-08-26T12:18:00.507Z,8.90
2022-08-26T12:19:00.599Z,9.20
2022-08-26T12:20:00.577Z,9.00
2022-08-26T12:21:00.567Z,9.00
2022-08-26T12:22:00.527Z,9.90
2022-08-26T12:23:00.485Z,9.20
2022-08-26T12:24:00.465Z,9.40
2022-08-26T12:25:00.449Z,9.10
2022-08-26T12:26:00.625Z,9.30
2022-08-26T12:27:02.032Z,10.00
2022-08-26T12:28:00.485Z,8.90
2022-08-26T12:29:12.720Z,9.20
2022-08-26T12:30:00.406Z,8.80
2022-08-26T12:31:00.973Z,8.30
2022-08-26T12:32:00.897Z,8.30
2022-08-26T12:33:00.342Z,8.80
2022-08-26T12:34:00.385Z,8.50
2022-08-26T12:35:00.496Z,9.30
2022-08-26T12:36:00.514Z,9.80
2022-08-26T12:38:00.586Z,10.70
2022-08-26T12:39:00.400Z,9.40
2022-08-26T12:40:00.417Z,8.50
2022-08-26T12:41:00.372Z,8.80
2022-08-26T12:42:00.257Z,9.40
2022-08-26T12:43:00.483Z,9.00
2022-08-26T12:44:01.208Z,8.50
2022-08-26T12:45:00.500Z,9.00
2022-08-26T12:46:01.632Z,8.40
2022-08-26T12:47:00.262Z,8.20
2022-08-26T12:48:00.171Z,8.00
2022-08-26T12:49:00.163Z,7.40
2022-08-26T12:50:00.385Z,7.20
2022-08-26T12:51:00.250Z,8.00
2022-08-26T12:52:00.335Z,8.10
2022-08-26T12:53:00.582Z,7.80
2022-08-26T12:54:00.268Z,7.90
2022-08-26T12:55:00.264Z,6.90
2022-08-26T12:56:00.194Z,7.20
2022-08-26T12:57:00.186Z,7.00
2022-08-26T12:58:00.223Z,7.00
2022-08-26T12:59:00.229Z,7.20
2022-08-26T13:00:00.410Z,7.20
2022-08-26T13:01:00.549Z,6.80
2022-08-26T13:02:00.533Z,6.70
2022-08-26T13:03:00.179Z,6.50
2022-08-26T13:04:00.428Z,6.10
2022-08-26T13:05:01.041Z,6.50
2022-08-26T13:06:00.229Z,6.00
2022-08-26T13:07:00.130Z,5.90
2022-08-26T13:08:00.187Z,5.80
2022-08-26T13:09:01.733Z,6.30
2022-08-26T13:10:00.155Z,5.80
2022-08-26T13:10:59.972Z,6.00
2022-08-26T13:12:02.199Z,5.50
2022-08-26T13:12:59.943Z,6.10
2022-08-26T13:13:59.994Z,5.10
2022-08-26T13:15:00.006Z,5.40
2022-08-26T13:16:00.033Z,5.90
2022-08-26T13:16:59.940Z,6.00
2022-08-26T13:17:59.984Z,5.20
2022-08-26T13:19:00.158Z,5.70
2022-08-26T13:20:03.562Z,5.30
2022-08-26T13:20:59.809Z,5.40
2022-08-26T13:21:59.889Z,5.50
2022-08-26T13:22:59.946Z,5.60
2022-08-26T13:23:59.823Z,6.00
2022-08-26T13:24:59.876Z,4.90
2022-08-26T13:25:59.911Z,5.40
2022-08-26T13:26:59.806Z,5.50
2022-08-26T13:27:59.792Z,5.40
2022-08-26T13:29:02.179Z,5.30
2022-08-26T13:30:00.034Z,5.00
2022-08-26T13:30:59.813Z,4.70
2022-08-26T13:32:00.128Z,4.80
2022-08-26T13:32:59.877Z,5.00
2022-08-26T13:33:59.935Z,5.00
2022-08-26T13:34:59.907Z,4.70
2022-08-26T13:36:01.579Z,4.30
2022-08-26T13:36:59.808Z,4.70
2022-08-26T13:38:00.040Z,4.80
2022-08-26T13:38:59.841Z,4.70
2022-08-26T13:39:59.824Z,4.80
2022-08-26T13:40:59.766Z,4.30
2022-08-26T13:41:59.988Z,4.70
2022-08-26T13:42:59.622Z,4.80
2022-08-26T13:43:59.905Z,4.50